createdAt,value
2023-05-20T00:00:53.325Z,9.40
2023-05-20T00:03:30.217Z,8.83
2023-05-20T00:05:59.585Z,9.30
2023-05-20T00:08:31.252Z,8.87
2023-05-20T00:11:02.083Z,8.97
2023-05-20T00:13:31.473Z,8.97
2023-05-20T00:16:02.548Z,8.60
2023-05-20T00:18:34.191Z,7.70
2023-05-20T00:21:03.689Z,7.70
2023-05-20T00:23:32.987Z,7.87
2023-05-20T00:26:04.165Z,7.23
2023-05-20T00:28:37.564Z,7.50
2023-05-20T00:31:06.748Z,7.22
2023-05-20T00:33:36.001Z,7.47
2023-05-20T00:36:07.357Z,7.03
2023-05-20T00:38:36.893Z,7.27
2023-05-20T00:41:09.128Z,7.17
2023-05-20T00:43:40.927Z,6.95
2023-05-20T00:46:10.601Z,7.13
2023-05-20T00:48:43.538Z,6.83
2023-05-20T00:51:17.572Z,7.30
2023-05-20T00:53:47.571Z,5.60
2023-05-20T00:56:21.623Z,6.77
2023-05-20T00:58:53.168Z,7.13
2023-05-20T01:01:26.635Z,6.67
2023-05-20T01:03:55.854Z,6.67
2023-05-20T01:06:25.616Z,6.77
2023-05-20T01:08:59.896Z,6.30
2023-05-20T01:11:44.772Z,6.43
2023-05-20T01:14:20.773Z,6.77
2023-05-20T01:16:54.423Z,6.70
2023-05-20T01:19:41.815Z,5.80
2023-05-20T01:22:12.839Z,6.23
2023-05-20T01:24:48.192Z,6.20
2023-05-20T01:27:22.888Z,6.07
2023-05-20T01:29:53.906Z,6.37
2023-05-20T01:32:28.607Z,6.27
2023-05-20T01:34:59.592Z,5.90
2023-05-20T01:37:30.923Z,5.63
2023-05-20T01:40:03.566Z,5.83
2023-05-20T01:42:33.987Z,5.20
2023-05-20T01:45:04.670Z,5.63
2023-05-20T01:47:33.719Z,6.03
2023-05-20T01:50:03.259Z,5.17
2023-05-20T01:52:32.187Z,5.50
2023-05-20T01:55:01.657Z,5.60
2023-05-20T01:57:32.500Z,5.30
2023-05-20T02:00:03.826Z,5.70
2023-05-20T02:02:48.836Z,4.90
2023-05-20T02:05:18.105Z,5.20
2023-05-20T02:07:49.266Z,5.40
2023-05-20T02:10:18.521Z,5.03
2023-05-20T02:12:50.663Z,5.00
2023-05-20T02:15:21.791Z,5.22
2023-05-20T02:17:52.772Z,4.67
2023-05-20T02:20:21.897Z,5.93
2023-05-20T02:22:55.026Z,5.33
2023-05-20T02:25:24.550Z,4.83
2023-05-20T02:27:53.576Z,4.60
2023-05-20T02:30:24.993Z,5.00
2023-05-20T02:32:54.147Z,5.30
2023-05-20T02:35:23.445Z,5.03
2023-05-20T02:37:54.492Z,5.10
2023-05-20T02:40:24.490Z,4.93
2023-05-20T02:42:53.453Z,5.30
2023-05-20T02:45:22.859Z,4.90
2023-05-20T02:47:53.802Z,4.40
2023-05-20T02:50:25.451Z,5.03
2023-05-20T02:52:57.066Z,4.53
2023-05-20T02:55:29.258Z,4.70
2023-05-20T02:57:58.270Z,4.67
2023-05-20T03:00:34.991Z,5.77
2023-05-20T03:03:07.518Z,4.67
2023-05-20T03:05:37.570Z,4.60
2023-05-20T03:08:14.824Z,4.47
2023-05-20T03:10:43.800Z,4.63
2023-05-20T03:13:16.401Z,5.00
2023-05-20T03:15:45.973Z,4.50
2023-05-20T03:18:20.127Z,5.00
2023-05-20T03:20:49.119Z,5.28
2023-05-20T03:23:20.859Z,4.77
2023-05-20T03:25:53.526Z,4.80
2023-05-20T03:28:23.465Z,4.23
2023-05-20T03:30:52.845Z,4.27
2023-05-20T03:33:25.622Z,4.53
2023-05-20T03:35:57.764Z,5.22
2023-05-20T03:38:31.823Z,4.53
2023-05-20T03:41:02.280Z,5.00
2023-05-20T03:43:34.143Z,4.57
2023-05-20T03:49:11.264Z,4.60
2023-05-20T03:51:41.015Z,4.87
2023-05-20T03:54:14.369Z,4.87
2023-05-20T03:56:49.009Z,4.80
2023-05-20T03:59:18.511Z,4.33
2023-05-20T04:01:53.462Z,4.80
2023-05-20T04:04:24.373Z,4.53
2023-05-20T04:06:53.878Z,4.57
2023-05-20T04:09:23.432Z,4.60
2023-05-20T04:11:55.234Z,4.67
2023-05-20T04:14:24.620Z,5.17
2023-05-20T04:16:55.072Z,4.63
2023-05-20T04:19:34.291Z,5.03
2023-05-20T04:22:03.736Z,4.37
2023-05-20T04:24:33.399Z,4.43
2023-05-20T04:27:06.005Z,4.93
2023-05-20T04:29:39.154Z,4.60
2023-05-20T04:32:12.093Z,4.20
2023-05-20T04:34:42.301Z,3.67
2023-05-20T04:37:17.683Z,4.07
2023-05-20T04:39:52.913Z,3.80
2023-05-20T04:42:22.164Z,4.47
2023-05-20T04:44:56.415Z,3.90
2023-05-20T04:47:25.597Z,4.20
2023-05-20T04:49:58.308Z,4.00
2023-05-20T04:52:29.570Z,3.47
2023-05-20T04:55:01.380Z,4.10
2023-05-20T04:57:34.041Z,4.10
2023-05-20T05:00:07.189Z,4.03
2023-05-20T05:02:57.430Z,4.23
2023-05-20T05:05:27.403Z,4.13
2023-05-20T05:08:14.007Z,4.13
2023-05-20T05:10:54.088Z,3.73
2023-05-20T05:13:31.183Z,3.57
2023-05-20T05:16:03.427Z,3.90
2023-05-20T05:18:35.645Z,4.05
2023-05-20T05:21:07.364Z,3.37
2023-05-20T05:23:41.998Z,4.33
2023-05-20T05:26:11.787Z,3.93
2023-05-20T05:28:49.660Z,3.37
2023-05-20T05:31:21.750Z,3.80
2023-05-20T05:33:53.367Z,3.63
2023-05-20T05:36:25.262Z,3.90
2023-05-20T05:38:55.395Z,4.27
2023-05-20T05:41:24.822Z,3.70
2023-05-20T05:43:58.539Z,3.40
2023-05-20T05:49:01.764Z,3.23
2023-05-20T05:51:33.649Z,3.27
2023-05-20T05:54:10.159Z,4.33
2023-05-20T05:56:39.060Z,3.27
2023-05-20T05:59:08.401Z,3.83
2023-05-20T06:01:58.336Z,3.13
2023-05-20T06:04:33.551Z,4.07
2023-05-20T06:07:03.771Z,3.40
2023-05-20T06:09:32.744Z,3.50
2023-05-20T06:12:02.536Z,3.60
2023-05-20T06:14:32.567Z,3.20
2023-05-20T06:17:06.411Z,3.40
2023-05-20T06:19:38.192Z,3.53
2023-05-20T06:22:10.020Z,3.60
2023-05-20T06:24:40.315Z,4.03
2023-05-20T06:27:12.394Z,3.90
2023-05-20T06:29:46.010Z,3.57
2023-05-20T06:32:18.806Z,4.07
2023-05-20T06:34:59.191Z,3.70
2023-05-20T06:37:28.802Z,4.17
2023-05-20T06:39:58.052Z,3.47
2023-05-20T06:42:27.702Z,3.30
2023-05-20T06:45:10.332Z,4.00
2023-05-20T06:47:56.698Z,3.53
2023-05-20T06:50:27.804Z,3.60
2023-05-20T06:53:05.314Z,3.80
2023-05-20T06:55:41.004Z,3.35
2023-05-20T06:58:18.749Z,3.73
2023-05-20T07:00:48.608Z,3.80
2023-05-20T07:03:19.604Z,3.63
2023-05-20T07:05:54.233Z,4.43
2023-05-20T07:08:23.839Z,3.77
2023-05-20T07:10:55.788Z,3.97
2023-05-20T07:13:34.737Z,3.57
2023-05-20T07:16:11.743Z,4.23
2023-05-20T07:18:51.276Z,4.13
2023-05-20T07:21:21.057Z,4.27
2023-05-20T07:24:09.069Z,3.83
2023-05-20T07:26:53.506Z,3.67
2023-05-20T07:29:25.160Z,4.00
2023-05-20T07:31:55.946Z,4.20
2023-05-20T07:34:27.627Z,3.87
2023-05-20T07:36:58.376Z,3.80
2023-05-20T07:39:27.871Z,3.83
2023-05-20T07:41:56.756Z,4.10
2023-05-20T07:44:27.313Z,4.53
2023-05-20T07:47:06.648Z,4.07
2023-05-20T07:49:36.513Z,3.87
2023-05-20T07:52:09.189Z,4.17
2023-05-20T07:54:43.426Z,3.50
2023-05-20T07:57:16.746Z,3.50
2023-05-20T07:59:48.292Z,4.70
2023-05-20T08:02:25.212Z,3.40
2023-05-20T08:04:54.857Z,3.70
2023-05-20T08:07:26.296Z,4.40
2023-05-20T08:09:56.746Z,3.83
2023-05-20T08:12:27.913Z,4.47
2023-05-20T08:14:57.482Z,3.43
2023-05-20T08:17:26.818Z,4.30
2023-05-20T08:19:56.344Z,3.60
2023-05-20T08:22:25.482Z,5.20
2023-05-20T08:24:54.717Z,3.83
2023-05-20T08:27:23.806Z,3.90
2023-05-20T08:29:53.950Z,4.33
2023-05-20T08:32:24.258Z,3.77
2023-05-20T08:34:56.630Z,3.97
2023-05-20T08:37:28.913Z,3.53
2023-05-20T08:39:59.238Z,3.83
2023-05-20T08:42:31.000Z,3.40
2023-05-20T08:45:02.885Z,3.90
2023-05-20T08:47:36.350Z,3.40
2023-05-20T08:50:07.059Z,3.20
2023-05-20T08:52:42.408Z,3.10
2023-05-20T08:55:26.358Z,3.20
2023-05-20T08:57:58.330Z,3.17
2023-05-20T09:00:30.308Z,2.80
2023-05-20T09:03:03.792Z,3.67
2023-05-20T09:05:34.649Z,3.13
2023-05-20T09:08:14.660Z,2.97
2023-05-20T09:10:43.849Z,3.20
2023-05-20T09:13:12.704Z,2.83
2023-05-20T09:15:44.004Z,3.27
2023-05-20T09:18:14.133Z,3.73
2023-05-20T09:20:46.712Z,3.53
2023-05-20T09:23:21.162Z,3.17
2023-05-20T09:25:52.521Z,3.33
2023-05-20T09:28:24.556Z,2.87
2023-05-20T09:31:00.140Z,2.73
2023-05-20T09:33:29.930Z,3.13
2023-05-20T09:36:09.050Z,3.37
2023-05-20T09:38:41.676Z,3.17
2023-05-20T09:41:12.472Z,3.77
2023-05-20T09:43:44.622Z,3.10
2023-05-20T09:46:17.380Z,3.00
2023-05-20T09:48:46.486Z,3.33
2023-05-20T09:51:17.618Z,3.50
2023-05-20T09:53:46.833Z,3.30
2023-05-20T09:56:22.201Z,3.53
2023-05-20T09:58:58.073Z,2.90
2023-05-20T10:01:27.481Z,3.07
2023-05-20T10:03:57.631Z,3.17
2023-05-20T10:06:46.435Z,3.07
2023-05-20T10:09:51.436Z,3.30
2023-05-20T10:12:29.054Z,3.00
2023-05-20T10:15:10.653Z,3.50
2023-05-20T10:17:46.867Z,3.13
2023-05-20T10:20:18.225Z,4.10
2023-05-20T10:22:57.124Z,3.33
2023-05-20T10:25:28.421Z,3.80
2023-05-20T10:28:09.544Z,3.43
2023-05-20T10:30:49.470Z,3.70
2023-05-20T10:33:19.314Z,3.83
2023-05-20T10:35:51.867Z,3.13
2023-05-20T10:38:24.415Z,3.77
2023-05-20T10:40:53.843Z,3.77
2023-05-20T10:43:28.810Z,3.23
2023-05-20T10:46:00.210Z,3.67
2023-05-20T10:48:34.934Z,3.70
2023-05-20T10:51:05.520Z,3.50
2023-05-20T10:53:45.956Z,3.57
2023-05-20T10:56:21.477Z,3.57
2023-05-20T10:58:55.797Z,3.63
2023-05-20T11:01:27.041Z,3.70
2023-05-20T11:03:57.538Z,2.90
2023-05-20T11:06:28.853Z,3.60
2023-05-20T11:09:06.234Z,3.37
2023-05-20T11:11:38.086Z,3.77
2023-05-20T11:14:07.384Z,3.23
2023-05-20T11:16:36.640Z,3.23
2023-05-20T11:19:08.339Z,3.60
2023-05-20T11:21:44.609Z,3.25
2023-05-20T11:24:22.914Z,3.37
2023-05-20T11:26:52.729Z,3.50
2023-05-20T11:29:21.948Z,3.57
2023-05-20T11:31:55.665Z,3.20
2023-05-20T11:34:26.843Z,3.80
2023-05-20T11:37:00.769Z,3.37
2023-05-20T11:39:31.226Z,3.63
2023-05-20T11:42:01.561Z,3.50
2023-05-20T11:44:33.191Z,3.43
2023-05-20T11:47:03.817Z,3.27
2023-05-20T11:49:40.414Z,3.40
2023-05-20T11:52:12.588Z,3.57
2023-05-20T11:54:43.580Z,3.73
2023-05-20T11:57:15.991Z,3.63
2023-05-20T11:59:51.162Z,3.65
2023-05-20T12:02:20.560Z,3.70
2023-05-20T12:04:49.450Z,3.30
2023-05-20T12:07:18.488Z,3.60
2023-05-20T12:09:47.297Z,3.90
2023-05-20T12:12:20.765Z,4.50
2023-05-20T12:14:50.041Z,3.83
2023-05-20T12:17:21.675Z,4.30
2023-05-20T12:19:50.765Z,3.83
2023-05-20T12:22:20.028Z,3.70
2023-05-20T12:24:50.029Z,3.37
2023-05-20T12:27:19.123Z,3.43
2023-05-20T12:29:48.093Z,3.60
2023-05-20T12:32:17.664Z,3.87
2023-05-20T12:34:46.458Z,3.60
2023-05-20T12:37:16.575Z,3.33
2023-05-20T12:39:46.148Z,3.97
2023-05-20T12:42:19.123Z,3.67
2023-05-20T12:44:49.196Z,4.03
2023-05-20T12:47:18.360Z,3.50
2023-05-20T12:49:50.237Z,4.07
2023-05-20T12:52:22.794Z,4.13
2023-05-20T12:54:51.923Z,3.92
2023-05-20T12:57:21.996Z,4.13
2023-05-20T12:59:51.060Z,3.77
2023-05-20T13:02:21.265Z,4.13
2023-05-20T13:04:50.173Z,3.67
2023-05-20T13:07:19.272Z,3.70
2023-05-20T13:09:48.169Z,3.43
2023-05-20T13:12:17.458Z,3.73
2023-05-20T13:14:46.259Z,3.70
2023-05-20T13:17:19.092Z,4.10
2023-05-20T13:19:51.460Z,4.03
2023-05-20T13:22:22.033Z,4.47
2023-05-20T13:24:50.912Z,4.00
2023-05-20T13:27:20.154Z,3.90
2023-05-20T13:29:49.199Z,3.77
2023-05-20T13:32:21.101Z,3.77
2023-05-20T13:34:50.218Z,4.20
2023-05-20T13:37:19.248Z,4.07
2023-05-20T13:39:48.980Z,4.03
2023-05-20T13:42:20.854Z,3.23
2023-05-20T13:44:51.575Z,3.30
2023-05-20T13:47:26.767Z,3.93
2023-05-20T13:49:59.113Z,3.70
2023-05-20T13:52:29.154Z,3.30
2023-05-20T13:54:57.976Z,3.27
2023-05-20T13:57:27.063Z,3.60
2023-05-20T13:59:55.994Z,3.87
2023-05-20T14:02:24.864Z,4.30
2023-05-20T14:04:54.167Z,3.77
2023-05-20T14:07:23.012Z,3.93
2023-05-20T14:09:51.973Z,4.43
2023-05-20T14:12:23.558Z,3.87
2023-05-20T14:14:53.723Z,5.13
2023-05-20T14:17:22.844Z,4.13
2023-05-20T14:19:51.566Z,3.87
2023-05-20T14:22:23.449Z,4.23
2023-05-20T14:24:52.226Z,5.13
2023-05-20T14:27:21.309Z,4.50
2023-05-20T14:29:50.662Z,4.10
2023-05-20T14:32:21.083Z,4.10
2023-05-20T14:34:51.336Z,3.77
2023-05-20T14:37:23.968Z,3.93
2023-05-20T14:39:52.866Z,3.80
2023-05-20T14:42:21.937Z,3.87
2023-05-20T14:44:54.351Z,3.30
2023-05-20T14:47:23.784Z,3.58
2023-05-20T14:49:53.032Z,4.13
2023-05-20T14:52:22.066Z,3.90
2023-05-20T14:54:52.052Z,3.60
2023-05-20T14:57:25.154Z,3.77
2023-05-20T14:59:54.074Z,3.87
2023-05-20T15:02:26.944Z,3.93
2023-05-20T15:04:56.113Z,4.30
2023-05-20T15:07:25.818Z,4.47
2023-05-20T15:09:54.799Z,4.07
2023-05-20T15:12:23.786Z,4.50
2023-05-20T15:14:52.745Z,4.40
2023-05-20T15:17:23.347Z,4.70
2023-05-20T15:19:52.714Z,4.00
2023-05-20T15:22:22.557Z,3.93
2023-05-20T15:24:52.803Z,4.03
2023-05-20T15:27:23.267Z,3.73
2023-05-20T15:29:55.782Z,3.43
2023-05-20T15:32:25.266Z,3.83
2023-05-20T15:34:54.274Z,3.60
2023-05-20T15:37:23.254Z,4.00
2023-05-20T15:39:59.609Z,4.53
2023-05-20T15:42:33.148Z,4.30
2023-05-20T15:45:02.508Z,4.80
2023-05-20T15:47:31.800Z,3.83
2023-05-20T15:50:10.839Z,4.27
2023-05-20T15:52:40.025Z,3.95
2023-05-20T15:55:10.986Z,3.90
2023-05-20T15:57:40.308Z,3.73
2023-05-20T16:00:11.799Z,4.13
2023-05-20T16:02:43.642Z,3.67
2023-05-20T16:05:15.946Z,4.00
2023-05-20T16:07:46.290Z,3.57
2023-05-20T16:10:18.283Z,3.90
2023-05-20T16:12:47.557Z,3.63
2023-05-20T16:15:22.012Z,3.87
2023-05-20T16:17:51.199Z,3.60
2023-05-20T16:20:20.306Z,3.60
2023-05-20T16:22:49.706Z,3.97
2023-05-20T16:25:18.604Z,3.87
2023-05-20T16:27:47.690Z,3.90
2023-05-20T16:30:20.480Z,3.90
2023-05-20T16:32:49.825Z,3.80
2023-05-20T16:35:19.456Z,3.57
2023-05-20T16:37:48.921Z,3.87
2023-05-20T16:40:17.882Z,3.63
2023-05-20T16:42:47.010Z,3.87
2023-05-20T16:45:20.799Z,3.50
2023-05-20T16:47:50.268Z,3.73
2023-05-20T16:50:19.256Z,4.23
2023-05-20T16:52:48.354Z,4.03
2023-05-20T16:55:18.207Z,3.70
2023-05-20T16:57:47.866Z,4.27
2023-05-20T17:00:20.417Z,4.20
2023-05-20T17:02:50.185Z,3.93
2023-05-20T17:05:19.315Z,3.70
2023-05-20T17:07:49.355Z,4.00
2023-05-20T17:10:18.276Z,3.60
2023-05-20T17:12:47.274Z,4.23
2023-05-20T17:15:19.813Z,3.83
2023-05-20T17:17:50.073Z,3.70
2023-05-20T17:20:19.289Z,3.50
2023-05-20T17:22:48.733Z,3.93
2023-05-20T17:25:18.205Z,3.83
2023-05-20T17:27:47.174Z,3.70
2023-05-20T17:30:21.633Z,3.50
2023-05-20T17:32:53.846Z,3.37
2023-05-20T17:35:25.139Z,3.20
2023-05-20T17:37:54.723Z,3.57
2023-05-20T17:40:23.760Z,3.90
2023-05-20T17:42:52.919Z,4.13
2023-05-20T17:45:30.517Z,3.45
2023-05-20T17:48:11.663Z,4.00
2023-05-20T17:50:41.799Z,3.13
2023-05-20T17:53:15.435Z,3.03
2023-05-20T17:55:46.882Z,3.10
2023-05-20T17:58:17.442Z,3.23
2023-05-20T18:00:47.068Z,3.60
2023-05-20T18:03:18.633Z,3.93
2023-05-20T18:05:48.098Z,3.10
2023-05-20T18:08:23.913Z,3.13
2023-05-20T18:10:55.316Z,3.47
2023-05-20T18:13:25.586Z,3.30
2023-05-20T18:15:56.091Z,3.10
2023-05-20T18:18:26.905Z,3.10
2023-05-20T18:20:57.665Z,3.63
2023-05-20T18:23:27.262Z,3.30
2023-05-20T18:25:56.927Z,3.47
2023-05-20T18:28:26.500Z,3.83
2023-05-20T18:30:57.226Z,4.93
2023-05-20T18:33:26.788Z,4.63
2023-05-20T18:35:56.443Z,3.67
2023-05-20T18:38:26.155Z,3.87
2023-05-20T18:40:55.747Z,3.47
2023-05-20T18:43:25.883Z,3.70
2023-05-20T18:45:55.638Z,3.77
2023-05-20T18:48:27.369Z,3.30
2023-05-20T18:50:58.577Z,3.37
2023-05-20T18:53:27.954Z,3.70
2023-05-20T18:56:02.133Z,4.13
2023-05-20T18:58:33.218Z,3.60
2023-05-20T19:01:02.839Z,3.90
2023-05-20T19:03:32.717Z,4.30
2023-05-20T19:06:01.901Z,4.00
2023-05-20T19:08:32.020Z,4.27
2023-05-20T19:11:01.238Z,4.27
2023-05-20T19:13:30.895Z,4.70
2023-05-20T19:16:00.210Z,4.20
2023-05-20T19:18:29.780Z,3.80
2023-05-20T19:20:59.226Z,4.37
2023-05-20T19:23:28.466Z,4.27
2023-05-20T19:25:57.502Z,4.07
2023-05-20T19:28:26.826Z,4.00
2023-05-20T19:30:55.910Z,4.27
2023-05-20T19:33:25.762Z,4.37
2023-05-20T19:35:57.264Z,4.33
2023-05-20T19:38:26.578Z,4.23
2023-05-20T19:40:55.684Z,4.50
2023-05-20T19:43:25.267Z,3.67
2023-05-20T19:45:54.422Z,4.03
2023-05-20T19:48:23.903Z,4.10
2023-05-20T19:50:53.320Z,3.90
2023-05-20T19:53:23.011Z,3.80
2023-05-20T19:55:53.055Z,4.13
2023-05-20T19:58:22.939Z,4.10
2023-05-20T20:00:52.132Z,3.70
2023-05-20T20:03:20.972Z,4.50
2023-05-20T20:05:50.465Z,4.00
2023-05-20T20:08:19.617Z,3.93
2023-05-20T20:10:48.943Z,3.97
2023-05-20T20:13:18.427Z,3.53
2023-05-20T20:15:47.673Z,3.90
2023-05-20T20:18:23.143Z,4.07
2023-05-20T20:20:54.698Z,4.17
2023-05-20T20:23:27.764Z,3.80
2023-05-20T20:25:57.284Z,4.17
2023-05-20T20:28:26.459Z,3.70
2023-05-20T20:30:55.538Z,4.37
2023-05-20T20:33:27.177Z,3.73
2023-05-20T20:35:57.137Z,3.60
2023-05-20T20:38:26.608Z,3.93
2023-05-20T20:40:55.628Z,3.77
2023-05-20T20:43:28.266Z,4.00
2023-05-20T20:45:59.469Z,3.70
2023-05-20T20:48:28.876Z,4.37
2023-05-20T20:50:58.614Z,3.50
2023-05-20T20:53:27.779Z,3.90
2023-05-20T20:55:56.615Z,3.70
2023-05-20T20:58:26.667Z,3.80
2023-05-20T21:00:55.788Z,4.67
2023-05-20T21:03:26.125Z,4.00
2023-05-20T21:05:54.998Z,4.10
2023-05-20T21:08:27.343Z,4.17
2023-05-20T21:10:58.810Z,4.63
2023-05-20T21:13:28.356Z,4.80
2023-05-20T21:15:58.018Z,4.77
2023-05-20T21:18:27.355Z,4.97
2023-05-20T21:20:56.455Z,4.63
2023-05-20T21:23:25.561Z,4.27
2023-05-20T21:25:54.635Z,4.97
2023-05-20T21:28:23.874Z,5.07
2023-05-20T21:30:52.801Z,5.03
2023-05-20T21:33:25.278Z,5.03
2023-05-20T21:35:54.376Z,4.90
2023-05-20T21:38:25.208Z,5.03
2023-05-20T21:40:54.241Z,4.70
2023-05-20T21:43:27.405Z,5.60
2023-05-20T21:45:58.537Z,5.87
2023-05-20T21:48:29.366Z,6.10
2023-05-20T21:51:02.865Z,5.43
2023-05-20T21:53:32.222Z,5.53
2023-05-20T21:56:01.429Z,5.15
2023-05-20T21:58:31.316Z,5.70
2023-05-20T22:01:03.273Z,5.30
2023-05-20T22:03:33.161Z,5.33
2023-05-20T22:06:04.706Z,5.60
2023-05-20T22:08:33.910Z,5.40
2023-05-20T22:11:07.549Z,6.17
2023-05-20T22:16:10.810Z,4.93
2023-05-20T22:18:40.268Z,5.07
2023-05-20T22:21:08.999Z,5.83
2023-05-20T22:23:38.155Z,5.50
2023-05-20T22:26:09.549Z,6.57
2023-05-20T22:28:38.663Z,5.50
2023-05-20T22:31:08.086Z,5.80
2023-05-20T22:33:40.893Z,6.43
2023-05-20T22:36:09.900Z,5.57
2023-05-20T22:38:38.998Z,5.93
2023-05-20T22:41:08.168Z,5.17
2023-05-20T22:43:37.719Z,5.47
2023-05-20T22:46:06.994Z,5.90
2023-05-20T22:48:36.297Z,5.40
2023-05-20T22:51:06.265Z,5.93
2023-05-20T22:53:35.543Z,5.50
2023-05-20T22:56:07.857Z,5.87
2023-05-20T22:58:39.242Z,5.40
2023-05-20T23:01:08.354Z,5.60
2023-05-20T23:03:37.887Z,5.50
2023-05-20T23:06:06.903Z,5.40
2023-05-20T23:08:37.130Z,5.20
2023-05-20T23:11:06.177Z,5.23
2023-05-20T23:13:35.503Z,4.97
2023-05-20T23:16:06.045Z,5.80
2023-05-20T23:18:35.189Z,5.60
2023-05-20T23:21:04.185Z,5.80
2023-05-20T23:23:33.422Z,5.10
2023-05-20T23:26:02.510Z,4.90
2023-05-20T23:28:31.950Z,4.30
2023-05-20T23:31:00.813Z,4.70
2023-05-20T23:33:31.026Z,4.50
2023-05-20T23:36:00.039Z,5.33
2023-05-20T23:38:31.918Z,5.07
2023-05-20T23:41:01.022Z,5.03
2023-05-20T23:43:30.177Z,4.17
2023-05-20T23:46:02.600Z,4.33
2023-05-20T23:48:35.470Z,4.77
2023-05-20T23:51:04.749Z,4.77
2023-05-20T23:53:35.907Z,5.00
2023-05-20T23:56:07.250Z,5.10
2023-05-20T23:58:36.470Z,4.70
